createdAt,value
2018-10-18T00:02:12.427Z,60.10
2018-10-18T00:04:42.929Z,60.10
2018-10-18T00:07:13.516Z,60.10
2018-10-18T00:09:44.078Z,60.20
2018-10-18T00:12:14.577Z,60.40
2018-10-18T00:14:44.944Z,60.50
2018-10-18T00:17:20.549Z,60.50
2018-10-18T00:19:51.457Z,60.50
2018-10-18T00:22:22.029Z,60.30
2018-10-18T00:24:52.589Z,60.10
2018-10-18T00:27:23.577Z,60.10
2018-10-18T00:29:53.915Z,60.00
2018-10-18T00:32:24.496Z,60.00
2018-10-18T00:34:55.117Z,60.00
2018-10-18T00:37:25.493Z,60.00
2018-10-18T00:39:56.052Z,59.90
2018-10-18T00:42:26.637Z,60.00
2018-10-18T00:44:57.213Z,60.10
2018-10-18T00:47:27.549Z,60.30
2018-10-18T00:49:58.131Z,60.30
2018-10-18T00:52:28.921Z,60.30
2018-10-18T00:54:59.475Z,60.50
2018-10-18T00:57:29.800Z,60.50
2018-10-18T01:00:00.184Z,60.80
2018-10-18T01:02:30.705Z,60.70
2018-10-18T01:05:01.016Z,60.70
2018-10-18T01:07:31.357Z,60.60
2018-10-18T01:10:02.133Z,60.70
2018-10-18T01:12:32.889Z,60.60
2018-10-18T01:15:03.269Z,60.80
2018-10-18T01:17:33.605Z,61.60
2018-10-18T01:20:04.133Z,60.90
2018-10-18T01:22:34.671Z,60.90
2018-10-18T01:25:05.846Z,61.00
2018-10-18T01:27:36.196Z,61.00
2018-10-18T01:30:07.294Z,60.90
2018-10-18T01:32:38.049Z,61.10
2018-10-18T01:35:08.403Z,61.10
2018-10-18T01:37:38.747Z,61.10
2018-10-18T01:40:09.072Z,61.10
2018-10-18T01:42:39.426Z,61.10
2018-10-18T01:45:09.752Z,61.20
2018-10-18T01:47:40.346Z,61.30
2018-10-18T01:50:11.184Z,61.30
2018-10-18T01:52:41.944Z,61.30
2018-10-18T01:55:12.257Z,61.40
2018-10-18T01:57:42.609Z,61.20
2018-10-18T02:00:13.018Z,61.20
2018-10-18T02:02:43.484Z,61.00
2018-10-18T02:05:14.338Z,61.00
2018-10-18T02:07:44.680Z,61.80
2018-10-18T02:10:15.000Z,60.90
2018-10-18T02:12:45.348Z,60.70
2018-10-18T02:15:15.666Z,60.70
2018-10-18T02:17:46.212Z,60.70
2018-10-18T02:20:16.785Z,60.90
2018-10-18T02:22:47.128Z,60.70
2018-10-18T02:25:17.782Z,60.90
2018-10-18T02:27:48.248Z,61.00
2018-10-18T02:30:18.923Z,61.10
2018-10-18T02:32:49.616Z,61.30
2018-10-18T02:35:19.941Z,61.10
2018-10-18T02:37:50.529Z,61.30
2018-10-18T02:40:20.848Z,61.40
2018-10-18T02:42:51.420Z,61.20
2018-10-18T02:45:21.763Z,61.40
2018-10-18T02:47:52.358Z,61.20
2018-10-18T02:50:22.669Z,61.10
2018-10-18T02:52:53.029Z,61.00
2018-10-18T02:55:23.351Z,61.00
2018-10-18T02:57:53.691Z,60.90
2018-10-18T03:00:24.029Z,61.80
2018-10-18T03:02:54.700Z,61.10
2018-10-18T03:05:25.036Z,61.10
2018-10-18T03:07:55.355Z,61.20
2018-10-18T03:10:25.935Z,61.30
2018-10-18T03:12:56.261Z,61.30
2018-10-18T03:15:26.843Z,61.20
2018-10-18T03:17:57.207Z,61.30
2018-10-18T03:20:27.525Z,61.40
2018-10-18T03:22:57.837Z,61.50
2018-10-18T03:25:28.189Z,61.50
2018-10-18T03:27:58.496Z,61.40
2018-10-18T03:30:28.830Z,61.40
2018-10-18T03:32:59.136Z,62.40
2018-10-18T03:35:29.458Z,61.70
2018-10-18T03:37:59.989Z,61.70
2018-10-18T03:40:30.543Z,61.80
2018-10-18T03:43:01.141Z,61.70
2018-10-18T03:45:31.829Z,61.60
2018-10-18T03:48:02.424Z,61.70
2018-10-18T03:50:32.750Z,61.70
2018-10-18T03:53:03.328Z,61.50
2018-10-18T03:55:33.913Z,61.60
2018-10-18T03:58:04.529Z,61.70
2018-10-18T04:00:34.873Z,61.70
2018-10-18T04:03:05.596Z,61.90
2018-10-18T04:05:35.941Z,62.00
2018-10-18T04:08:06.732Z,62.10
2018-10-18T04:10:37.083Z,62.10
2018-10-18T04:13:07.613Z,62.10
2018-10-18T04:15:38.397Z,62.30
2018-10-18T04:18:09.093Z,62.30
2018-10-18T04:20:39.529Z,62.20
2018-10-18T04:23:10.225Z,62.10
2018-10-18T04:25:40.900Z,61.90
2018-10-18T04:28:11.576Z,61.90
2018-10-18T04:30:42.194Z,61.90
2018-10-18T04:33:12.513Z,62.70
2018-10-18T04:35:43.085Z,62.10
2018-10-18T04:38:13.397Z,61.90
2018-10-18T04:40:43.787Z,61.90
2018-10-18T04:43:14.097Z,62.00
2018-10-18T04:45:44.467Z,62.00
2018-10-18T04:48:14.931Z,61.90
2018-10-18T04:50:45.438Z,61.80
2018-10-18T04:53:15.764Z,61.80
2018-10-18T04:55:46.374Z,61.80
2018-10-18T04:58:16.684Z,61.90
2018-10-18T05:00:47.056Z,62.10
2018-10-18T05:03:17.382Z,62.20
2018-10-18T05:05:54.213Z,62.30
2018-10-18T05:08:25.422Z,62.30
2018-10-18T05:10:56.198Z,62.40
2018-10-18T05:13:26.769Z,62.50
2018-10-18T05:15:57.157Z,62.40
2018-10-18T05:18:27.469Z,62.30
2018-10-18T05:20:58.209Z,62.10
2018-10-18T05:23:28.577Z,62.10
2018-10-18T05:25:59.182Z,62.00
2018-10-18T05:28:29.580Z,61.90
2018-10-18T05:30:59.945Z,61.90
2018-10-18T05:33:30.656Z,61.90
2018-10-18T05:36:01.496Z,62.00
2018-10-18T05:38:31.811Z,62.10
2018-10-18T05:41:02.187Z,62.20
2018-10-18T05:43:32.749Z,62.40
2018-10-18T05:46:03.115Z,62.50
2018-10-18T05:48:33.689Z,62.70
2018-10-18T05:51:04.025Z,62.70
2018-10-18T05:53:34.880Z,62.80
2018-10-18T05:56:05.408Z,62.70
2018-10-18T05:58:35.736Z,62.80
2018-10-18T06:01:07.162Z,62.90
2018-10-18T06:03:37.692Z,63.10
2018-10-18T06:06:08.284Z,63.10
2018-10-18T06:08:38.848Z,63.10
2018-10-18T06:11:29.059Z,62.90
2018-10-18T06:13:59.687Z,62.80
2018-10-18T06:16:30.028Z,62.60
2018-10-18T06:19:00.674Z,62.60
2018-10-18T06:21:31.590Z,62.70
2018-10-18T06:24:02.179Z,62.90
2018-10-18T06:26:32.585Z,62.90
2018-10-18T06:29:02.930Z,62.90
2018-10-18T06:31:33.701Z,63.00
2018-10-18T06:34:04.316Z,63.20
2018-10-18T06:36:34.640Z,63.30
2018-10-18T06:39:08.076Z,63.10
2018-10-18T06:41:39.890Z,62.50
2018-10-18T06:44:10.641Z,62.30
2018-10-18T06:46:41.202Z,62.10
2018-10-18T06:49:12.322Z,62.10
2018-10-18T06:51:43.211Z,62.30
2018-10-18T06:54:13.828Z,62.60
2018-10-18T06:56:51.373Z,62.90
2018-10-18T06:59:22.456Z,63.50
2018-10-18T07:01:53.481Z,63.70
2018-10-18T07:04:24.092Z,63.50
2018-10-18T07:06:55.131Z,63.70
2018-10-18T07:09:25.776Z,63.40
2018-10-18T07:11:56.360Z,63.50
2018-10-18T07:14:27.370Z,63.70
2018-10-18T07:16:58.306Z,63.40
2018-10-18T07:19:29.165Z,63.40
2018-10-18T07:21:59.554Z,63.00
2018-10-18T07:24:29.885Z,63.30
2018-10-18T07:27:00.512Z,63.40
2018-10-18T07:29:31.085Z,63.30
2018-10-18T07:32:01.666Z,63.40
2018-10-18T07:34:31.968Z,63.30
2018-10-18T07:37:02.293Z,63.30
2018-10-18T07:39:32.633Z,63.30
2018-10-18T07:42:03.042Z,63.30
2018-10-18T07:44:33.756Z,63.30
2018-10-18T07:47:04.454Z,63.50
2018-10-18T07:49:35.068Z,63.70
2018-10-18T07:52:05.488Z,64.10
2018-10-18T07:54:36.299Z,64.80
2018-10-18T07:57:07.377Z,65.10
2018-10-18T07:59:37.861Z,65.60
2018-10-18T08:02:08.628Z,65.70
2018-10-18T08:04:39.221Z,65.80
2018-10-18T08:07:09.836Z,66.00
2018-10-18T08:09:40.600Z,65.80
2018-10-18T08:12:11.005Z,65.80
2018-10-18T08:14:41.481Z,66.10
2018-10-18T08:17:12.280Z,65.20
2018-10-18T08:19:43.524Z,64.80
2018-10-18T08:22:14.196Z,64.60
2018-10-18T08:24:44.775Z,64.10
2018-10-18T08:27:15.593Z,63.80
2018-10-18T08:29:46.289Z,63.40
2018-10-18T08:32:16.959Z,63.20
2018-10-18T08:34:47.734Z,63.00
2018-10-18T08:37:18.175Z,62.80
2018-10-18T08:39:48.776Z,62.70
2018-10-18T08:42:19.577Z,62.40
2018-10-18T08:44:52.372Z,62.50
2018-10-18T08:47:23.685Z,62.10
2018-10-18T08:49:54.152Z,61.90
2018-10-18T08:52:24.648Z,61.60
2018-10-18T08:54:55.083Z,61.40
2018-10-18T08:57:25.852Z,61.20
2018-10-18T08:59:56.229Z,61.00
2018-10-18T09:02:26.762Z,61.00
2018-10-18T09:04:58.363Z,60.70
2018-10-18T09:07:29.534Z,60.50
2018-10-18T09:10:00.497Z,60.40
2018-10-18T09:12:31.499Z,60.10
2018-10-18T09:15:02.292Z,60.70
2018-10-18T09:17:32.916Z,59.80
2018-10-18T09:20:03.713Z,59.60
2018-10-18T09:22:34.458Z,59.60
2018-10-18T09:25:05.371Z,59.50
2018-10-18T09:27:35.939Z,59.50
2018-10-18T09:30:09.186Z,59.30
2018-10-18T09:32:39.809Z,59.20
2018-10-18T09:35:11.258Z,59.20
2018-10-18T09:37:42.777Z,59.20
2018-10-18T09:40:13.121Z,58.90
2018-10-18T09:42:43.524Z,58.80
2018-10-18T09:45:14.906Z,58.50
2018-10-18T09:47:49.861Z,58.50
2018-10-18T09:50:24.651Z,58.40
2018-10-18T09:52:56.457Z,58.30
2018-10-18T09:55:27.295Z,58.00
2018-10-18T09:57:58.067Z,57.90
2018-10-18T10:00:33.752Z,57.80
2018-10-18T10:03:15.458Z,57.60
2018-10-18T10:05:46.055Z,57.40
2018-10-18T10:08:17.025Z,57.20
2018-10-18T10:10:47.644Z,57.10
2018-10-18T10:13:19.600Z,57.10
2018-10-18T10:15:51.353Z,56.90
2018-10-18T10:18:21.795Z,56.80
2018-10-18T10:20:52.568Z,56.60
2018-10-18T10:23:22.921Z,56.40
2018-10-18T10:25:53.288Z,56.40
2018-10-18T10:28:23.612Z,56.40
2018-10-18T10:30:53.974Z,56.00
2018-10-18T10:33:24.810Z,55.80
2018-10-18T10:35:55.465Z,55.70
2018-10-18T10:38:26.064Z,55.80
2018-10-18T10:40:56.446Z,55.70
2018-10-18T10:43:27.242Z,55.50
2018-10-18T10:45:57.893Z,55.30
2018-10-18T10:48:28.438Z,55.10
2018-10-18T10:50:58.849Z,55.10
2018-10-18T10:53:31.336Z,55.40
2018-10-18T10:56:02.002Z,55.40
2018-10-18T10:58:32.724Z,55.40
2018-10-18T11:01:11.470Z,55.40
2018-10-18T11:03:42.676Z,55.20
2018-10-18T11:06:13.268Z,55.20
2018-10-18T11:08:43.805Z,55.20
2018-10-18T11:11:15.113Z,55.20
2018-10-18T11:13:45.469Z,55.00
2018-10-18T11:16:16.051Z,55.20
2018-10-18T11:18:46.366Z,55.00
2018-10-18T11:21:18.154Z,54.90
2018-10-18T11:23:48.869Z,55.10
2018-10-18T11:26:20.206Z,55.10
2018-10-18T11:28:50.979Z,55.00
2018-10-18T11:31:21.317Z,54.90
2018-10-18T11:33:51.900Z,55.00
2018-10-18T11:36:22.314Z,55.00
2018-10-18T11:38:52.673Z,55.00
2018-10-18T11:41:23.065Z,55.30
2018-10-18T11:43:53.444Z,55.20
2018-10-18T11:46:23.828Z,55.00
2018-10-18T11:48:54.220Z,54.90
2018-10-18T11:51:24.662Z,54.90
2018-10-18T11:53:55.168Z,55.00
2018-10-18T11:56:25.990Z,54.70
2018-10-18T11:58:56.619Z,54.60
2018-10-18T12:01:27.559Z,54.60
2018-10-18T12:03:58.928Z,54.10
2018-10-18T12:06:29.913Z,53.60
2018-10-18T12:09:01.400Z,53.10
2018-10-18T12:11:32.797Z,52.90
2018-10-18T12:14:03.866Z,52.60
2018-10-18T12:16:35.027Z,52.50
2018-10-18T12:19:05.778Z,52.50
2018-10-18T12:21:36.572Z,52.40
2018-10-18T12:24:07.364Z,53.00
2018-10-18T12:26:37.826Z,52.50
2018-10-18T12:29:08.534Z,52.30
2018-10-18T12:31:39.034Z,52.50
2018-10-18T12:34:09.837Z,52.70
2018-10-18T12:36:40.505Z,52.60
2018-10-18T12:39:11.198Z,52.70
2018-10-18T12:41:41.948Z,52.60
2018-10-18T12:44:12.432Z,52.70
2018-10-18T12:46:42.973Z,52.50
2018-10-18T12:49:13.337Z,52.70
2018-10-18T12:51:43.710Z,52.50
2018-10-18T12:54:14.102Z,52.50
2018-10-18T12:56:44.661Z,52.60
2018-10-18T12:59:15.058Z,52.60
2018-10-18T13:01:45.460Z,52.60
2018-10-18T13:04:15.998Z,52.60
2018-10-18T13:06:46.384Z,52.60
2018-10-18T13:09:17.213Z,52.70
2018-10-18T13:11:47.837Z,52.60
2018-10-18T13:14:18.501Z,52.80
2018-10-18T13:16:49.270Z,52.80
2018-10-18T13:19:19.914Z,52.90
2018-10-18T13:21:50.649Z,52.90
2018-10-18T13:24:21.420Z,52.90
2018-10-18T13:26:51.962Z,52.90
2018-10-18T13:29:22.301Z,53.00
2018-10-18T13:31:52.714Z,53.00
2018-10-18T13:34:23.252Z,53.10
2018-10-18T13:36:53.609Z,52.90
2018-10-18T13:39:23.999Z,52.90
2018-10-18T13:41:54.358Z,52.90
2018-10-18T13:44:24.989Z,52.90
2018-10-18T13:46:55.368Z,53.00
2018-10-18T13:49:26.093Z,53.00
2018-10-18T13:51:56.417Z,53.30
2018-10-18T13:54:27.195Z,52.90
2018-10-18T13:56:57.749Z,53.00
2018-10-18T14:00:42.513Z,53.10
2018-10-18T14:03:12.888Z,53.10
2018-10-18T14:05:43.284Z,53.30
2018-10-18T14:08:14.080Z,53.50
2018-10-18T14:10:44.797Z,53.50
2018-10-18T14:13:15.412Z,53.40
2018-10-18T14:15:45.974Z,53.40
2018-10-18T14:18:16.320Z,53.60
2018-10-18T14:20:46.630Z,53.60
2018-10-18T14:23:17.061Z,53.60
2018-10-18T14:25:47.737Z,53.40
2018-10-18T14:28:18.324Z,53.50
2018-10-18T14:30:48.907Z,53.60
2018-10-18T14:33:19.713Z,53.50
2018-10-18T14:35:50.812Z,53.50
2018-10-18T14:38:21.299Z,53.70
2018-10-18T14:40:51.983Z,53.80
2018-10-18T14:43:22.543Z,53.80
2018-10-18T14:45:53.333Z,53.80
2018-10-18T14:48:24.620Z,53.80
2018-10-18T14:50:55.433Z,53.80
2018-10-18T14:53:25.820Z,53.70
2018-10-18T14:55:56.432Z,53.70
2018-10-18T14:58:27.105Z,54.20
2018-10-18T15:00:59.399Z,53.80
2018-10-18T15:03:30.064Z,53.80
2018-10-18T15:06:04.680Z,53.80
2018-10-18T15:08:38.296Z,53.80
2018-10-18T15:11:08.673Z,53.80
2018-10-18T15:13:39.253Z,53.90
2018-10-18T15:16:09.632Z,54.00
2018-10-18T15:18:40.252Z,54.00
2018-10-18T15:21:10.897Z,54.00
2018-10-18T15:23:41.293Z,54.10
2018-10-18T15:26:11.995Z,54.10
2018-10-18T15:28:42.501Z,54.20
2018-10-18T15:31:13.064Z,54.10
2018-10-18T15:33:46.548Z,54.20
2018-10-18T15:36:17.186Z,54.60
2018-10-18T15:38:47.700Z,54.40
2018-10-18T15:41:18.241Z,54.40
2018-10-18T15:43:49.130Z,54.70
2018-10-18T15:46:20.114Z,54.70
2018-10-18T15:48:53.408Z,54.70
2018-10-18T15:51:23.720Z,54.80
2018-10-18T15:53:54.318Z,54.70
2018-10-18T15:56:33.936Z,54.80
2018-10-18T15:59:05.678Z,55.00
2018-10-18T16:01:37.038Z,55.60
2018-10-18T16:04:08.733Z,54.90
2018-10-18T16:06:40.571Z,55.60
2018-10-18T16:09:13.829Z,55.00
2018-10-18T16:11:45.309Z,55.10
2018-10-18T16:14:17.441Z,55.20
2018-10-18T16:16:48.974Z,55.20
2018-10-18T16:19:20.379Z,55.20
2018-10-18T16:21:51.592Z,55.40
2018-10-18T16:24:24.475Z,55.40
2018-10-18T16:26:55.977Z,55.40
2018-10-18T16:29:27.458Z,55.40
2018-10-18T16:31:59.451Z,55.40
2018-10-18T16:34:30.544Z,55.50
2018-10-18T16:37:02.055Z,55.50
2018-10-18T16:39:33.203Z,55.60
2018-10-18T16:42:05.198Z,55.60
2018-10-18T16:44:36.463Z,55.60
2018-10-18T16:47:07.981Z,55.60
2018-10-18T16:49:38.410Z,55.60
2018-10-18T16:52:08.817Z,55.70
2018-10-18T16:54:39.463Z,55.80
2018-10-18T16:57:09.964Z,56.00
2018-10-18T16:59:40.577Z,56.10
2018-10-18T17:02:11.047Z,56.10
2018-10-18T17:04:41.858Z,56.60
2018-10-18T17:07:13.057Z,56.30
2018-10-18T17:09:43.565Z,56.50
2018-10-18T17:12:14.010Z,56.50
2018-10-18T17:14:45.223Z,56.50
2018-10-18T17:17:15.625Z,56.60
2018-10-18T17:19:46.313Z,56.60
2018-10-18T17:22:16.698Z,56.70
2018-10-18T17:24:47.490Z,56.80
2018-10-18T17:27:18.147Z,56.60
2018-10-18T17:29:50.654Z,56.60
2018-10-18T17:32:21.609Z,56.60
2018-10-18T17:34:52.124Z,56.80
2018-10-18T17:37:22.819Z,56.90
2018-10-18T17:39:53.380Z,56.80
2018-10-18T17:42:24.053Z,56.90
2018-10-18T17:44:54.462Z,56.90
2018-10-18T17:47:25.004Z,56.90
2018-10-18T17:49:55.528Z,57.00
2018-10-18T17:52:26.032Z,57.00
2018-10-18T17:54:56.637Z,57.60
2018-10-18T17:57:26.977Z,57.10
2018-10-18T17:59:57.654Z,57.00
2018-10-18T18:02:28.139Z,57.00
2018-10-18T18:04:58.530Z,57.10
2018-10-18T18:07:28.865Z,57.20
2018-10-18T18:09:59.509Z,57.10
2018-10-18T18:12:30.022Z,57.20
2018-10-18T18:15:00.658Z,57.20
2018-10-18T18:17:31.252Z,57.30
2018-10-18T18:20:03.121Z,57.40
2018-10-18T18:22:38.054Z,57.40
2018-10-18T18:25:10.545Z,57.50
2018-10-18T18:27:41.225Z,57.60
2018-10-18T18:30:14.680Z,57.60
2018-10-18T18:32:45.022Z,57.60
2018-10-18T18:35:15.377Z,57.60
2018-10-18T18:37:45.963Z,57.60
2018-10-18T18:40:16.741Z,57.70
2018-10-18T18:42:47.076Z,57.90
2018-10-18T18:45:21.563Z,57.90
2018-10-18T18:47:52.061Z,58.00
2018-10-18T18:50:22.442Z,58.00
2018-10-18T18:52:53.113Z,58.00
2018-10-18T18:55:23.656Z,58.10
2018-10-18T18:57:54.093Z,58.10
2018-10-18T19:00:24.534Z,58.10
2018-10-18T19:02:55.048Z,58.20
2018-10-18T19:05:25.873Z,58.20
2018-10-18T19:07:56.351Z,58.30
2018-10-18T19:10:27.178Z,58.30
2018-10-18T19:12:57.748Z,58.40
2018-10-18T19:15:28.378Z,58.40
2018-10-18T19:17:58.972Z,58.50
2018-10-18T19:20:29.357Z,58.50
2018-10-18T19:22:59.747Z,58.60
2018-10-18T19:25:30.500Z,58.60
2018-10-18T19:28:01.077Z,58.70
2018-10-18T19:30:31.512Z,58.60
2018-10-18T19:33:01.900Z,58.70
2018-10-18T19:35:32.318Z,58.70
2018-10-18T19:38:02.715Z,58.80
2018-10-18T19:40:33.545Z,58.80
2018-10-18T19:43:04.177Z,58.80
2018-10-18T19:45:34.880Z,58.90
2018-10-18T19:48:05.394Z,59.00
2018-10-18T19:50:35.829Z,59.00
2018-10-18T19:53:06.925Z,59.10
2018-10-18T19:55:37.458Z,59.20
2018-10-18T19:58:07.909Z,59.20
2018-10-18T20:00:38.420Z,59.10
2018-10-18T20:03:08.830Z,59.20
2018-10-18T20:05:39.290Z,59.20
2018-10-18T20:08:09.789Z,59.20
2018-10-18T20:10:40.590Z,59.30
2018-10-18T20:13:11.213Z,59.40
2018-10-18T20:15:41.632Z,59.30
2018-10-18T20:18:12.295Z,59.50
2018-10-18T20:20:42.858Z,59.40
2018-10-18T20:23:13.489Z,59.50
2018-10-18T20:25:43.967Z,59.50
2018-10-18T20:28:14.497Z,59.50
2018-10-18T20:30:44.885Z,59.60
2018-10-18T20:33:15.363Z,59.60
2018-10-18T20:35:45.944Z,59.60
2018-10-18T20:38:16.484Z,59.70
2018-10-18T20:40:47.126Z,59.80
2018-10-18T20:43:17.500Z,59.70
2018-10-18T20:45:47.953Z,60.50
2018-10-18T20:48:18.765Z,59.80
2018-10-18T20:50:49.142Z,59.90
2018-10-18T20:53:19.496Z,59.90
2018-10-18T20:55:50.084Z,60.00
2018-10-18T20:58:20.690Z,59.90
2018-10-18T21:00:51.204Z,60.00
2018-10-18T21:03:21.817Z,60.00
2018-10-18T21:05:52.162Z,60.00
2018-10-18T21:08:22.746Z,60.00
2018-10-18T21:10:53.106Z,60.00
2018-10-18T21:13:23.461Z,60.00
2018-10-18T21:15:53.828Z,60.20
2018-10-18T21:18:24.437Z,60.10
2018-10-18T21:20:55.062Z,60.20
2018-10-18T21:23:25.581Z,60.40
2018-10-18T21:25:56.176Z,60.30
2018-10-18T21:28:26.785Z,60.20
2018-10-18T21:30:57.146Z,60.30
2018-10-18T21:33:27.501Z,60.40
2018-10-18T21:35:57.833Z,60.40
2018-10-18T21:38:28.196Z,60.90
2018-10-18T21:40:58.900Z,60.70
2018-10-18T21:43:29.653Z,60.70
2018-10-18T21:46:00.120Z,60.70
2018-10-18T21:48:30.953Z,60.70
2018-10-18T21:51:01.379Z,60.70
2018-10-18T21:53:32.184Z,60.80
2018-10-18T21:56:02.627Z,60.80
2018-10-18T21:58:33.018Z,60.80
2018-10-18T22:01:03.623Z,60.80
2018-10-18T22:03:34.005Z,60.80
2018-10-18T22:06:04.457Z,60.80
2018-10-18T22:08:34.854Z,60.90
2018-10-18T22:11:05.580Z,61.00
2018-10-18T22:13:36.176Z,61.00
2018-10-18T22:16:06.816Z,60.90
2018-10-18T22:18:37.217Z,61.10
2018-10-18T22:21:07.863Z,61.10
2018-10-18T22:23:38.436Z,61.00
2018-10-18T22:26:08.803Z,61.10
2018-10-18T22:28:39.183Z,61.10
2018-10-18T22:31:09.799Z,61.00
2018-10-18T22:33:40.688Z,60.90
2018-10-18T22:36:11.316Z,61.00
2018-10-18T22:38:41.729Z,60.90
2018-10-18T22:41:12.403Z,61.00
2018-10-18T22:43:42.936Z,61.00
2018-10-18T22:46:13.285Z,61.10
2018-10-18T22:48:43.660Z,61.10
2018-10-18T22:51:14.248Z,61.00
2018-10-18T22:53:44.792Z,61.10
2018-10-18T22:56:15.156Z,61.10
2018-10-18T22:58:45.552Z,61.10
2018-10-18T23:01:16.118Z,61.10
2018-10-18T23:03:46.732Z,61.00
2018-10-18T23:06:17.312Z,61.10
2018-10-18T23:08:48.101Z,61.30
2018-10-18T23:11:18.448Z,61.20
2018-10-18T23:13:48.805Z,61.40
2018-10-18T23:16:19.174Z,61.30
2018-10-18T23:18:49.765Z,61.30
2018-10-18T23:21:20.132Z,61.30
2018-10-18T23:23:50.712Z,61.40
2018-10-18T23:26:21.321Z,61.40
2018-10-18T23:28:51.657Z,61.40
2018-10-18T23:31:22.034Z,61.40
2018-10-18T23:33:52.541Z,61.50
2018-10-18T23:36:23.129Z,61.40
2018-10-18T23:38:53.482Z,61.50
2018-10-18T23:41:24.012Z,61.30
2018-10-18T23:43:54.357Z,61.40
2018-10-18T23:46:24.910Z,61.50
2018-10-18T23:48:55.298Z,61.50
2018-10-18T23:51:25.651Z,61.50
2018-10-18T23:53:55.981Z,61.50
2018-10-18T23:56:26.596Z,61.50
2018-10-18T23:58:56.966Z,61.50
